createdAt,value
2023-02-23T08:34:52.656Z,32.28
2023-02-23T08:38:18.135Z,31.35
2023-02-23T08:40:48.856Z,30.33
2023-02-23T08:43:29.189Z,31.80
2023-02-23T08:49:23.742Z,31.15
2023-02-23T08:52:06.606Z,29.27
2023-02-23T09:25:32.518Z,31.27
2023-02-23T11:33:57.970Z,42.80
2023-02-23T11:49:25.376Z,41.58
2023-02-23T11:52:00.223Z,41.72
2023-02-23T14:44:31.327Z,46.50
2023-02-23T14:47:10.416Z,43.92
2023-02-23T14:49:40.723Z,45.60
2023-02-23T14:54:34.966Z,48.10
2023-02-23T14:57:03.305Z,47.67
2023-02-23T14:59:42.013Z,45.25
2023-02-23T15:02:22.181Z,46.05
2023-02-23T15:04:48.672Z,48.97
2023-02-23T15:07:18.781Z,45.90
2023-02-23T15:09:46.624Z,44.75
2023-02-23T15:12:15.332Z,44.30
2023-02-23T15:14:42.514Z,45.60
2023-02-23T15:17:17.704Z,43.42
2023-02-23T15:19:45.148Z,44.60
2023-02-23T15:22:24.735Z,42.33
2023-02-23T15:24:59.306Z,43.17
2023-02-23T15:27:32.995Z,40.20
2023-02-23T15:30:37.053Z,35.80
2023-02-23T15:33:48.035Z,36.50
2023-02-23T15:36:26.494Z,33.65
2023-02-23T15:41:36.886Z,27.42
2023-02-23T15:44:07.646Z,25.55
2023-02-23T15:46:34.255Z,24.50
2023-02-23T15:49:03.230Z,23.98
2023-02-23T15:51:29.656Z,23.40
2023-02-23T15:53:56.137Z,21.92
2023-02-23T15:56:27.725Z,20.70
2023-02-23T15:59:01.623Z,21.40
2023-02-23T16:01:31.820Z,20.83
2023-02-23T16:04:09.348Z,21.90
2023-02-23T16:06:38.170Z,21.30
2023-02-23T16:09:34.298Z,22.65
2023-02-23T16:12:02.790Z,20.70
2023-02-23T16:14:33.540Z,24.10
2023-02-23T16:17:11.473Z,20.77
2023-02-23T16:19:43.712Z,22.00
2023-02-23T16:22:16.767Z,21.00
2023-02-23T16:24:43.547Z,22.30
2023-02-23T16:27:12.060Z,21.27
2023-02-23T16:29:44.054Z,20.77
2023-02-23T16:32:16.542Z,20.08
2023-02-23T16:34:56.505Z,20.05
2023-02-23T16:37:26.028Z,21.95
2023-02-23T16:39:52.659Z,21.88
2023-02-23T16:42:32.710Z,20.77
2023-02-23T16:45:00.488Z,21.20
2023-02-23T16:47:36.587Z,20.50
2023-02-23T16:50:19.145Z,22.35
2023-02-23T16:52:46.422Z,24.20
2023-02-23T16:55:17.838Z,21.77
2023-02-23T16:57:51.822Z,23.92
2023-02-23T17:00:22.844Z,23.40
2023-02-23T17:02:50.860Z,24.58
2023-02-23T17:05:19.283Z,23.88
2023-02-23T17:07:46.234Z,23.15
2023-02-23T17:10:25.059Z,24.58
2023-02-23T17:12:55.590Z,23.80
2023-02-23T17:15:23.028Z,25.10
2023-02-23T17:17:52.323Z,23.67
2023-02-23T17:20:21.483Z,24.00
2023-02-23T17:22:50.795Z,25.52
2023-02-23T17:25:19.634Z,25.58
2023-02-23T17:27:46.311Z,21.88
2023-02-23T17:30:12.985Z,23.40
2023-02-23T17:32:39.576Z,23.85
2023-02-23T17:35:06.660Z,24.30
2023-02-23T17:37:33.087Z,24.70
2023-02-23T17:39:59.542Z,25.60
2023-02-23T17:42:33.988Z,24.50
2023-02-23T17:45:04.539Z,24.05
2023-02-23T17:47:31.868Z,26.02
2023-02-23T17:49:59.020Z,24.50
2023-02-23T17:52:25.535Z,24.45
2023-02-23T17:54:53.527Z,24.65
2023-02-23T17:57:21.165Z,24.83
2023-02-23T17:59:47.842Z,24.80
2023-02-23T18:02:16.553Z,26.73
2023-02-23T18:05:00.595Z,26.02
2023-02-23T18:07:31.632Z,25.88
2023-02-23T18:09:58.203Z,25.15
2023-02-23T18:12:27.730Z,24.30
2023-02-23T18:15:10.853Z,26.23
2023-02-23T18:17:38.254Z,29.58
2023-02-23T18:20:06.081Z,30.23
2023-02-23T18:22:34.948Z,27.60
2023-02-23T18:25:06.114Z,28.20
2023-02-23T18:27:32.702Z,28.85
2023-02-23T18:29:59.331Z,26.73
2023-02-23T18:32:25.893Z,26.88
2023-02-23T18:34:52.506Z,24.88
2023-02-23T18:37:31.118Z,25.55
2023-02-23T18:40:05.905Z,22.13
2023-02-23T18:42:38.789Z,23.25
2023-02-23T18:45:06.003Z,21.30
2023-02-23T18:47:56.065Z,20.55
2023-02-23T18:50:22.726Z,19.58
2023-02-23T18:52:53.262Z,19.88
2023-02-23T18:55:24.843Z,17.90
2023-02-23T18:57:53.363Z,20.02
2023-02-23T19:00:22.765Z,19.95
2023-02-23T19:02:55.101Z,19.30
2023-02-23T19:05:23.826Z,18.48
2023-02-23T19:08:01.329Z,17.75
2023-02-23T19:10:30.436Z,16.90
2023-02-23T19:12:58.489Z,17.35
2023-02-23T19:15:38.052Z,18.52
2023-02-23T19:18:07.896Z,17.30
2023-02-23T19:20:38.637Z,20.15
2023-02-23T19:23:05.730Z,17.30
2023-02-23T19:25:32.975Z,17.67
2023-02-23T19:27:59.612Z,18.63
2023-02-23T19:30:31.475Z,18.10
2023-02-23T19:33:01.278Z,16.67
2023-02-23T19:35:27.816Z,15.70
2023-02-23T19:37:54.746Z,16.65
2023-02-23T19:40:22.930Z,15.82
2023-02-23T19:42:53.461Z,17.33
2023-02-23T19:45:22.486Z,17.85
2023-02-23T19:47:51.351Z,17.38
2023-02-23T19:50:19.078Z,17.13
2023-02-23T19:52:48.977Z,18.48
2023-02-23T19:55:17.246Z,18.75
2023-02-23T19:57:43.902Z,18.50
2023-02-23T20:00:16.229Z,19.42
2023-02-23T20:02:52.333Z,20.55
2023-02-23T20:05:18.913Z,22.10
2023-02-23T20:07:55.200Z,20.30
2023-02-23T20:10:25.901Z,17.63
2023-02-23T20:12:53.392Z,15.70
2023-02-23T20:15:21.904Z,16.83
2023-02-23T20:17:48.688Z,15.57
2023-02-23T20:20:17.787Z,14.30
2023-02-23T20:29:01.734Z,14.30
2023-02-23T20:31:31.061Z,13.93
2023-02-23T20:34:02.058Z,15.90
2023-02-23T20:36:28.580Z,13.57
2023-02-23T20:38:55.747Z,13.80
2023-02-23T20:41:28.174Z,13.85
2023-02-23T20:44:01.398Z,13.77
2023-02-23T20:46:35.743Z,13.90
2023-02-23T20:49:17.208Z,14.30
2023-02-23T20:51:54.594Z,14.52
2023-02-23T20:54:21.260Z,16.50
2023-02-23T20:57:12.678Z,14.05
2023-02-23T20:59:39.388Z,13.75
2023-02-23T21:02:06.319Z,14.10
2023-02-23T21:04:35.951Z,13.50
2023-02-23T21:07:07.047Z,14.43
2023-02-23T21:09:40.078Z,14.40
2023-02-23T21:12:08.472Z,15.32
2023-02-23T21:14:39.969Z,13.65
2023-02-23T21:17:11.062Z,14.55
2023-02-23T21:19:39.972Z,13.98
2023-02-23T21:22:06.533Z,13.15
2023-02-23T21:24:38.888Z,13.82
2023-02-23T21:27:05.466Z,14.82
2023-02-23T21:29:31.868Z,14.10
2023-02-23T21:31:58.464Z,15.85
2023-02-23T21:34:27.669Z,15.55
2023-02-23T21:36:59.381Z,15.43
2023-02-23T21:39:28.168Z,15.13
2023-02-23T21:41:56.157Z,15.18
2023-02-23T21:44:26.821Z,14.30
2023-02-23T21:46:53.412Z,15.63
2023-02-23T21:49:20.347Z,14.27
2023-02-23T21:51:49.063Z,13.10
2023-02-23T21:54:15.887Z,14.68
2023-02-23T21:56:42.406Z,14.00
2023-02-23T21:59:11.548Z,14.43
2023-02-23T22:01:39.126Z,16.02
2023-02-23T22:04:08.997Z,16.27
2023-02-23T22:06:40.592Z,17.25
2023-02-23T22:09:11.638Z,14.18
2023-02-23T22:11:39.195Z,17.95
2023-02-23T22:14:06.798Z,14.15
2023-02-23T22:16:35.996Z,15.63
2023-02-23T22:19:04.427Z,14.00
2023-02-23T22:21:42.050Z,14.27
2023-02-23T22:24:12.308Z,15.40
2023-02-23T22:26:41.806Z,14.43
2023-02-23T22:29:10.042Z,14.97
2023-02-23T22:31:37.268Z,14.82
2023-02-23T22:34:04.348Z,15.80
2023-02-23T22:36:31.357Z,16.55
2023-02-23T22:39:00.315Z,15.73
2023-02-23T22:41:29.774Z,17.98
2023-02-23T22:43:56.698Z,17.37
2023-02-23T22:46:23.707Z,17.45
2023-02-23T22:48:50.113Z,17.88
2023-02-23T22:51:17.888Z,17.48
2023-02-23T22:53:44.645Z,18.70
2023-02-23T22:56:11.748Z,15.85
2023-02-23T22:58:38.280Z,17.08
2023-02-23T23:01:06.322Z,16.48
2023-02-23T23:03:36.331Z,15.65
2023-02-23T23:06:06.325Z,16.52
2023-02-23T23:08:37.034Z,16.48
2023-02-23T23:11:09.434Z,19.17
2023-02-23T23:13:37.170Z,16.13
2023-02-23T23:16:25.550Z,16.63
2023-02-23T23:19:02.753Z,17.73
2023-02-23T23:21:34.459Z,16.70
2023-02-23T23:24:05.877Z,16.35
2023-02-23T23:26:39.736Z,16.00
2023-02-23T23:29:10.254Z,16.48
2023-02-23T23:31:38.068Z,17.27
2023-02-23T23:34:06.587Z,17.13
2023-02-23T23:36:37.400Z,18.77
2023-02-23T23:39:30.049Z,18.60
2023-02-23T23:41:56.701Z,16.10
2023-02-23T23:44:24.423Z,12.60
2023-02-23T23:46:51.028Z,10.73
2023-02-23T23:49:20.815Z,8.77
2023-02-23T23:51:50.679Z,11.02
2023-02-23T23:54:18.484Z,8.20
2023-02-23T23:56:45.254Z,11.45
2023-02-23T23:59:17.172Z,9.75
